sensor_id;sensor_type;location;lat;lon;timestamp;P1;durP1;ratioP1;P2;durP2;ratioP2
76208;SDS011;64990;51.698;-0.292;2023-05-19T00:00:47;15.23;;;4.97;;
76208;SDS011;64990;51.698;-0.292;2023-05-19T00:03:13;21.20;;;4.25;;
76208;SDS011;64990;51.698;-0.292;2023-05-19T00:05:40;15.40;;;5.38;;
76208;SDS011;64990;51.698;-0.292;2023-05-19T00:08:09;17.95;;;5.28;;
76208;SDS011;64990;51.698;-0.292;2023-05-19T00:10:36;26.90;;;4.50;;
76208;SDS011;64990;51.698;-0.292;2023-05-19T00:13:02;10.07;;;3.30;;
76208;SDS011;64990;51.698;-0.292;2023-05-19T00:15:28;12.07;;;4.60;;
76208;SDS011;64990;51.698;-0.292;2023-05-19T00:17:54;18.00;;;4.88;;
76208;SDS011;64990;51.698;-0.292;2023-05-19T00:20:20;18.85;;;5.10;;
76208;SDS011;64990;51.698;-0.292;2023-05-19T00:22:47;12.02;;;3.55;;
76208;SDS011;64990;51.698;-0.292;2023-05-19T00:25:14;15.57;;;5.28;;
76208;SDS011;64990;51.698;-0.292;2023-05-19T00:27:40;12.80;;;5.68;;
76208;SDS011;64990;51.698;-0.292;2023-05-19T00:30:06;11.60;;;3.67;;
76208;SDS011;64990;51.698;-0.292;2023-05-19T00:32:32;8.38;;;4.28;;
76208;SDS011;64990;51.698;-0.292;2023-05-19T00:34:58;20.10;;;5.47;;
76208;SDS011;64990;51.698;-0.292;2023-05-19T00:37:24;16.23;;;6.13;;
76208;SDS011;64990;51.698;-0.292;2023-05-19T00:39:50;12.20;;;4.57;;
76208;SDS011;64990;51.698;-0.292;2023-05-19T00:42:17;16.42;;;5.93;;
76208;SDS011;64990;51.698;-0.292;2023-05-19T00:44:43;11.13;;;4.97;;
76208;SDS011;64990;51.698;-0.292;2023-05-19T00:47:09;16.98;;;4.82;;
76208;SDS011;64990;51.698;-0.292;2023-05-19T00:49:35;14.18;;;4.90;;
76208;SDS011;64990;51.698;-0.292;2023-05-19T00:52:01;13.52;;;4.85;;
76208;SDS011;64990;51.698;-0.292;2023-05-19T00:54:27;14.55;;;4.70;;
76208;SDS011;64990;51.698;-0.292;2023-05-19T00:56:53;15.73;;;4.35;;
76208;SDS011;64990;51.698;-0.292;2023-05-19T00:59:20;10.45;;;4.60;;
76208;SDS011;64990;51.698;-0.292;2023-05-19T01:01:46;11.52;;;4.93;;
76208;SDS011;64990;51.698;-0.292;2023-05-19T01:04:19;19.08;;;5.43;;
76208;SDS011;64990;51.698;-0.292;2023-05-19T01:06:48;16.45;;;5.47;;
76208;SDS011;64990;51.698;-0.292;2023-05-19T01:09:22;20.00;;;5.53;;
76208;SDS011;64990;51.698;-0.292;2023-05-19T01:11:51;12.57;;;4.82;;
76208;SDS011;64990;51.698;-0.292;2023-05-19T01:14:17;13.25;;;4.68;;
76208;SDS011;64990;51.698;-0.292;2023-05-19T01:16:53;12.48;;;5.38;;
76208;SDS011;64990;51.698;-0.292;2023-05-19T01:19:47;18.98;;;5.05;;
76208;SDS011;64990;51.698;-0.292;2023-05-19T01:32:49;16.63;;;6.57;;
76208;SDS011;64990;51.698;-0.292;2023-05-19T01:35:17;21.35;;;6.43;;
76208;SDS011;64990;51.698;-0.292;2023-05-19T01:37:43;17.83;;;6.80;;
76208;SDS011;64990;51.698;-0.292;2023-05-19T01:40:10;10.68;;;7.05;;
76208;SDS011;64990;51.698;-0.292;2023-05-19T01:42:37;9.93;;;5.57;;
76208;SDS011;64990;51.698;-0.292;2023-05-19T01:45:04;19.17;;;6.82;;
76208;SDS011;64990;51.698;-0.292;2023-05-19T01:47:34;14.55;;;7.38;;
76208;SDS011;64990;51.698;-0.292;2023-05-19T01:50:02;14.90;;;5.75;;
76208;SDS011;64990;51.698;-0.292;2023-05-19T01:52:28;21.02;;;7.68;;
76208;SDS011;64990;51.698;-0.292;2023-05-19T01:54:54;12.00;;;6.50;;
76208;SDS011;64990;51.698;-0.292;2023-05-19T01:57:27;19.65;;;6.35;;
76208;SDS011;64990;51.698;-0.292;2023-05-19T02:02:32;24.23;;;8.40;;
76208;SDS011;64990;51.698;-0.292;2023-05-19T02:05:01;18.17;;;7.65;;
76208;SDS011;64990;51.698;-0.292;2023-05-19T02:10:10;16.95;;;7.97;;
76208;SDS011;64990;51.698;-0.292;2023-05-19T02:12:39;43.63;;;10.05;;
76208;SDS011;64990;51.698;-0.292;2023-05-19T02:15:08;20.77;;;7.28;;
76208;SDS011;64990;51.698;-0.292;2023-05-19T02:17:37;21.00;;;7.75;;
76208;SDS011;64990;51.698;-0.292;2023-05-19T02:20:05;28.52;;;8.63;;
76208;SDS011;64990;51.698;-0.292;2023-05-19T02:22:34;22.52;;;8.68;;
76208;SDS011;64990;51.698;-0.292;2023-05-19T02:25:00;22.23;;;8.73;;
76208;SDS011;64990;51.698;-0.292;2023-05-19T02:27:25;18.58;;;7.88;;
76208;SDS011;64990;51.698;-0.292;2023-05-19T02:29:52;30.10;;;9.20;;
76208;SDS011;64990;51.698;-0.292;2023-05-19T02:32:18;15.57;;;7.60;;
76208;SDS011;64990;51.698;-0.292;2023-05-19T02:34:44;24.67;;;10.88;;
76208;SDS011;64990;51.698;-0.292;2023-05-19T02:37:13;34.75;;;10.18;;
76208;SDS011;64990;51.698;-0.292;2023-05-19T02:39:40;22.58;;;9.02;;
76208;SDS011;64990;51.698;-0.292;2023-05-19T02:42:06;24.05;;;8.85;;
76208;SDS011;64990;51.698;-0.292;2023-05-19T02:44:32;17.20;;;8.32;;
76208;SDS011;64990;51.698;-0.292;2023-05-19T02:46:58;23.33;;;11.27;;
76208;SDS011;64990;51.698;-0.292;2023-05-19T02:49:24;17.63;;;8.85;;
76208;SDS011;64990;51.698;-0.292;2023-05-19T02:51:50;23.20;;;9.68;;
76208;SDS011;64990;51.698;-0.292;2023-05-19T02:54:16;25.25;;;8.45;;
76208;SDS011;64990;51.698;-0.292;2023-05-19T02:56:42;27.52;;;8.80;;
76208;SDS011;64990;51.698;-0.292;2023-05-19T02:59:08;27.05;;;9.90;;
76208;SDS011;64990;51.698;-0.292;2023-05-19T03:01:34;16.42;;;8.02;;
76208;SDS011;64990;51.698;-0.292;2023-05-19T03:04:01;24.63;;;10.80;;
76208;SDS011;64990;51.698;-0.292;2023-05-19T03:06:27;29.15;;;8.57;;
76208;SDS011;64990;51.698;-0.292;2023-05-19T03:08:53;22.80;;;8.82;;
76208;SDS011;64990;51.698;-0.292;2023-05-19T03:11:19;31.30;;;9.60;;
76208;SDS011;64990;51.698;-0.292;2023-05-19T03:13:47;30.13;;;10.65;;
76208;SDS011;64990;51.698;-0.292;2023-05-19T03:16:13;26.00;;;9.88;;
76208;SDS011;64990;51.698;-0.292;2023-05-19T03:18:39;23.88;;;9.13;;
76208;SDS011;64990;51.698;-0.292;2023-05-19T03:21:05;23.92;;;10.77;;
76208;SDS011;64990;51.698;-0.292;2023-05-19T03:23:31;16.92;;;8.85;;
76208;SDS011;64990;51.698;-0.292;2023-05-19T03:25:57;28.42;;;9.25;;
76208;SDS011;64990;51.698;-0.292;2023-05-19T03:28:24;24.58;;;10.38;;
76208;SDS011;64990;51.698;-0.292;2023-05-19T03:30:51;20.92;;;9.50;;
76208;SDS011;64990;51.698;-0.292;2023-05-19T03:33:17;17.08;;;8.85;;
76208;SDS011;64990;51.698;-0.292;2023-05-19T03:35:43;26.02;;;9.10;;
76208;SDS011;64990;51.698;-0.292;2023-05-19T03:38:09;17.40;;;8.55;;
76208;SDS011;64990;51.698;-0.292;2023-05-19T03:40:36;20.73;;;9.02;;
76208;SDS011;64990;51.698;-0.292;2023-05-19T03:43:02;22.33;;;10.45;;
76208;SDS011;64990;51.698;-0.292;2023-05-19T03:45:28;18.50;;;9.25;;
76208;SDS011;64990;51.698;-0.292;2023-05-19T03:47:54;29.17;;;11.02;;
76208;SDS011;64990;51.698;-0.292;2023-05-19T03:50:20;20.92;;;10.25;;
76208;SDS011;64990;51.698;-0.292;2023-05-19T03:52:46;23.58;;;10.93;;
76208;SDS011;64990;51.698;-0.292;2023-05-19T03:55:12;19.08;;;8.85;;
76208;SDS011;64990;51.698;-0.292;2023-05-19T03:57:39;17.55;;;9.05;;
76208;SDS011;64990;51.698;-0.292;2023-05-19T04:00:08;19.20;;;10.75;;
76208;SDS011;64990;51.698;-0.292;2023-05-19T04:02:38;23.05;;;10.77;;
76208;SDS011;64990;51.698;-0.292;2023-05-19T04:05:04;21.38;;;10.27;;
76208;SDS011;64990;51.698;-0.292;2023-05-19T04:07:31;29.55;;;10.65;;
76208;SDS011;64990;51.698;-0.292;2023-05-19T04:09:57;29.02;;;12.80;;
76208;SDS011;64990;51.698;-0.292;2023-05-19T04:12:23;26.20;;;10.25;;
76208;SDS011;64990;51.698;-0.292;2023-05-19T04:14:49;34.90;;;10.57;;
76208;SDS011;64990;51.698;-0.292;2023-05-19T04:17:15;24.38;;;12.40;;
76208;SDS011;64990;51.698;-0.292;2023-05-19T04:19:41;30.35;;;11.13;;
76208;SDS011;64990;51.698;-0.292;2023-05-19T04:22:07;26.33;;;9.85;;
76208;SDS011;64990;51.698;-0.292;2023-05-19T04:24:32;24.88;;;10.18;;
76208;SDS011;64990;51.698;-0.292;2023-05-19T04:26:58;24.60;;;9.40;;
76208;SDS011;64990;51.698;-0.292;2023-05-19T04:29:26;18.42;;;8.95;;
76208;SDS011;64990;51.698;-0.292;2023-05-19T04:31:53;34.05;;;13.60;;
76208;SDS011;64990;51.698;-0.292;2023-05-19T04:34:20;24.08;;;10.82;;
76208;SDS011;64990;51.698;-0.292;2023-05-19T04:36:46;26.58;;;12.05;;
76208;SDS011;64990;51.698;-0.292;2023-05-19T04:39:13;21.23;;;9.60;;
76208;SDS011;64990;51.698;-0.292;2023-05-19T04:41:39;18.38;;;9.73;;
76208;SDS011;64990;51.698;-0.292;2023-05-19T04:44:06;26.83;;;10.77;;
76208;SDS011;64990;51.698;-0.292;2023-05-19T04:46:33;20.00;;;10.32;;
76208;SDS011;64990;51.698;-0.292;2023-05-19T04:48:59;28.15;;;11.27;;
76208;SDS011;64990;51.698;-0.292;2023-05-19T04:51:27;19.90;;;8.82;;
76208;SDS011;64990;51.698;-0.292;2023-05-19T04:53:55;23.90;;;10.85;;
76208;SDS011;64990;51.698;-0.292;2023-05-19T04:56:21;20.55;;;8.50;;
76208;SDS011;64990;51.698;-0.292;2023-05-19T04:58:47;22.98;;;9.18;;
76208;SDS011;64990;51.698;-0.292;2023-05-19T05:01:14;25.52;;;9.52;;
76208;SDS011;64990;51.698;-0.292;2023-05-19T05:03:43;26.25;;;11.52;;
76208;SDS011;64990;51.698;-0.292;2023-05-19T05:06:09;27.08;;;10.95;;
76208;SDS011;64990;51.698;-0.292;2023-05-19T05:08:35;20.45;;;10.38;;
76208;SDS011;64990;51.698;-0.292;2023-05-19T05:11:04;19.63;;;10.82;;
76208;SDS011;64990;51.698;-0.292;2023-05-19T05:13:30;26.02;;;10.18;;
76208;SDS011;64990;51.698;-0.292;2023-05-19T05:15:56;42.42;;;10.85;;
76208;SDS011;64990;51.698;-0.292;2023-05-19T05:18:23;22.23;;;11.95;;
76208;SDS011;64990;51.698;-0.292;2023-05-19T05:20:49;34.30;;;12.55;;
76208;SDS011;64990;51.698;-0.292;2023-05-19T05:23:15;27.33;;;11.90;;
76208;SDS011;64990;51.698;-0.292;2023-05-19T05:25:42;22.05;;;9.73;;
76208;SDS011;64990;51.698;-0.292;2023-05-19T05:28:08;32.90;;;11.00;;
76208;SDS011;64990;51.698;-0.292;2023-05-19T05:30:34;26.73;;;10.05;;
76208;SDS011;64990;51.698;-0.292;2023-05-19T05:33:01;25.88;;;10.68;;
76208;SDS011;64990;51.698;-0.292;2023-05-19T05:35:27;24.55;;;10.40;;
76208;SDS011;64990;51.698;-0.292;2023-05-19T05:37:53;30.63;;;10.23;;
76208;SDS011;64990;51.698;-0.292;2023-05-19T05:40:20;25.40;;;9.80;;
76208;SDS011;64990;51.698;-0.292;2023-05-19T05:42:46;24.55;;;7.95;;
76208;SDS011;64990;51.698;-0.292;2023-05-19T05:45:12;21.85;;;11.10;;
76208;SDS011;64990;51.698;-0.292;2023-05-19T05:47:38;20.40;;;8.93;;
76208;SDS011;64990;51.698;-0.292;2023-05-19T05:50:06;31.55;;;9.90;;
76208;SDS011;64990;51.698;-0.292;2023-05-19T05:52:33;46.35;;;9.98;;
76208;SDS011;64990;51.698;-0.292;2023-05-19T05:55:01;28.38;;;10.15;;
76208;SDS011;64990;51.698;-0.292;2023-05-19T05:57:27;24.20;;;9.88;;
76208;SDS011;64990;51.698;-0.292;2023-05-19T05:59:54;19.67;;;8.77;;
76208;SDS011;64990;51.698;-0.292;2023-05-19T06:02:20;21.23;;;8.52;;
76208;SDS011;64990;51.698;-0.292;2023-05-19T06:04:46;21.27;;;6.25;;
76208;SDS011;64990;51.698;-0.292;2023-05-19T06:07:12;19.70;;;8.27;;
76208;SDS011;64990;51.698;-0.292;2023-05-19T06:09:38;32.28;;;8.00;;
76208;SDS011;64990;51.698;-0.292;2023-05-19T06:12:04;18.25;;;8.07;;
76208;SDS011;64990;51.698;-0.292;2023-05-19T06:14:30;18.27;;;8.50;;
76208;SDS011;64990;51.698;-0.292;2023-05-19T06:16:56;28.55;;;9.63;;
76208;SDS011;64990;51.698;-0.292;2023-05-19T06:19:22;18.98;;;9.25;;
76208;SDS011;64990;51.698;-0.292;2023-05-19T06:21:49;26.77;;;10.15;;
76208;SDS011;64990;51.698;-0.292;2023-05-19T06:24:15;18.50;;;10.40;;
76208;SDS011;64990;51.698;-0.292;2023-05-19T06:26:41;30.23;;;11.98;;
76208;SDS011;64990;51.698;-0.292;2023-05-19T06:29:07;54.35;;;12.23;;
76208;SDS011;64990;51.698;-0.292;2023-05-19T06:31:33;25.80;;;9.55;;
76208;SDS011;64990;51.698;-0.292;2023-05-19T06:33:59;20.67;;;8.70;;
76208;SDS011;64990;51.698;-0.292;2023-05-19T06:36:25;21.88;;;10.43;;
76208;SDS011;64990;51.698;-0.292;2023-05-19T06:38:51;28.63;;;10.68;;
76208;SDS011;64990;51.698;-0.292;2023-05-19T06:41:17;28.88;;;10.27;;
76208;SDS011;64990;51.698;-0.292;2023-05-19T06:43:43;21.25;;;9.52;;
76208;SDS011;64990;51.698;-0.292;2023-05-19T06:46:09;18.50;;;9.80;;
76208;SDS011;64990;51.698;-0.292;2023-05-19T06:48:37;26.27;;;9.27;;
76208;SDS011;64990;51.698;-0.292;2023-05-19T06:51:03;23.17;;;9.50;;
76208;SDS011;64990;51.698;-0.292;2023-05-19T06:53:29;21.85;;;9.93;;
76208;SDS011;64990;51.698;-0.292;2023-05-19T06:55:55;22.17;;;9.25;;
76208;SDS011;64990;51.698;-0.292;2023-05-19T06:58:21;33.75;;;9.98;;
76208;SDS011;64990;51.698;-0.292;2023-05-19T07:00:47;19.95;;;7.93;;
76208;SDS011;64990;51.698;-0.292;2023-05-19T07:03:13;21.35;;;7.15;;
76208;SDS011;64990;51.698;-0.292;2023-05-19T07:05:39;20.75;;;6.43;;
76208;SDS011;64990;51.698;-0.292;2023-05-19T07:08:05;16.45;;;6.22;;
76208;SDS011;64990;51.698;-0.292;2023-05-19T07:10:32;14.38;;;5.85;;
76208;SDS011;64990;51.698;-0.292;2023-05-19T07:12:58;21.42;;;6.38;;
76208;SDS011;64990;51.698;-0.292;2023-05-19T07:15:24;23.52;;;7.45;;
76208;SDS011;64990;51.698;-0.292;2023-05-19T07:17:50;23.83;;;8.77;;
76208;SDS011;64990;51.698;-0.292;2023-05-19T07:20:16;27.25;;;9.40;;
76208;SDS011;64990;51.698;-0.292;2023-05-19T07:22:42;22.58;;;9.43;;
76208;SDS011;64990;51.698;-0.292;2023-05-19T07:25:08;27.08;;;9.50;;
76208;SDS011;64990;51.698;-0.292;2023-05-19T07:27:34;22.80;;;10.85;;
76208;SDS011;64990;51.698;-0.292;2023-05-19T07:30:00;24.80;;;8.85;;
76208;SDS011;64990;51.698;-0.292;2023-05-19T07:32:28;22.00;;;8.43;;
76208;SDS011;64990;51.698;-0.292;2023-05-19T07:34:54;21.25;;;9.23;;
76208;SDS011;64990;51.698;-0.292;2023-05-19T07:37:20;18.08;;;8.93;;
76208;SDS011;64990;51.698;-0.292;2023-05-19T07:39:46;25.60;;;9.20;;
76208;SDS011;64990;51.698;-0.292;2023-05-19T07:42:12;24.23;;;8.90;;
76208;SDS011;64990;51.698;-0.292;2023-05-19T07:44:38;19.98;;;9.27;;
76208;SDS011;64990;51.698;-0.292;2023-05-19T07:47:04;17.30;;;8.00;;
76208;SDS011;64990;51.698;-0.292;2023-05-19T07:49:30;22.60;;;8.40;;
76208;SDS011;64990;51.698;-0.292;2023-05-19T07:51:56;31.15;;;10.43;;
76208;SDS011;64990;51.698;-0.292;2023-05-19T07:54:22;22.60;;;6.75;;
76208;SDS011;64990;51.698;-0.292;2023-05-19T07:56:48;16.48;;;6.43;;
76208;SDS011;64990;51.698;-0.292;2023-05-19T07:59:14;15.50;;;6.82;;
76208;SDS011;64990;51.698;-0.292;2023-05-19T08:01:40;20.55;;;7.40;;
76208;SDS011;64990;51.698;-0.292;2023-05-19T08:04:06;25.05;;;8.07;;
76208;SDS011;64990;51.698;-0.292;2023-05-19T08:06:32;20.90;;;7.15;;
76208;SDS011;64990;51.698;-0.292;2023-05-19T08:08:59;15.32;;;8.50;;
76208;SDS011;64990;51.698;-0.292;2023-05-19T08:11:25;32.80;;;8.48;;
76208;SDS011;64990;51.698;-0.292;2023-05-19T08:13:52;19.50;;;8.45;;
76208;SDS011;64990;51.698;-0.292;2023-05-19T08:16:18;32.35;;;9.10;;
76208;SDS011;64990;51.698;-0.292;2023-05-19T08:18:44;40.15;;;9.65;;
76208;SDS011;64990;51.698;-0.292;2023-05-19T08:21:10;18.35;;;7.70;;
76208;SDS011;64990;51.698;-0.292;2023-05-19T08:23:36;23.33;;;8.80;;
76208;SDS011;64990;51.698;-0.292;2023-05-19T08:26:02;17.40;;;7.32;;
76208;SDS011;64990;51.698;-0.292;2023-05-19T08:28:28;15.30;;;8.15;;
76208;SDS011;64990;51.698;-0.292;2023-05-19T08:30:54;15.93;;;8.13;;
76208;SDS011;64990;51.698;-0.292;2023-05-19T08:33:20;23.95;;;8.55;;
76208;SDS011;64990;51.698;-0.292;2023-05-19T08:35:47;26.15;;;8.15;;
76208;SDS011;64990;51.698;-0.292;2023-05-19T08:38:13;17.30;;;7.22;;
76208;SDS011;64990;51.698;-0.292;2023-05-19T08:40:42;14.48;;;6.80;;
76208;SDS011;64990;51.698;-0.292;2023-05-19T08:43:08;14.02;;;8.13;;
76208;SDS011;64990;51.698;-0.292;2023-05-19T08:45:35;15.80;;;7.25;;
76208;SDS011;64990;51.698;-0.292;2023-05-19T08:48:02;15.52;;;7.05;;
76208;SDS011;64990;51.698;-0.292;2023-05-19T08:50:29;20.15;;;6.72;;
76208;SDS011;64990;51.698;-0.292;2023-05-19T08:53:00;25.40;;;8.65;;
76208;SDS011;64990;51.698;-0.292;2023-05-19T08:55:32;21.13;;;8.25;;
76208;SDS011;64990;51.698;-0.292;2023-05-19T08:58:00;16.48;;;7.75;;
76208;SDS011;64990;51.698;-0.292;2023-05-19T09:00:26;25.58;;;8.85;;
76208;SDS011;64990;51.698;-0.292;2023-05-19T09:02:53;23.20;;;8.73;;
76208;SDS011;64990;51.698;-0.292;2023-05-19T09:05:19;17.73;;;7.20;;
76208;SDS011;64990;51.698;-0.292;2023-05-19T09:07:45;27.25;;;8.25;;
76208;SDS011;64990;51.698;-0.292;2023-05-19T09:10:12;22.38;;;5.85;;
76208;SDS011;64990;51.698;-0.292;2023-05-19T09:12:40;21.70;;;7.00;;
76208;SDS011;64990;51.698;-0.292;2023-05-19T09:15:07;21.30;;;8.73;;
76208;SDS011;64990;51.698;-0.292;2023-05-19T09:17:33;19.27;;;7.60;;
76208;SDS011;64990;51.698;-0.292;2023-05-19T09:20:01;59.70;;;6.63;;
76208;SDS011;64990;51.698;-0.292;2023-05-19T09:22:29;14.57;;;5.60;;
76208;SDS011;64990;51.698;-0.292;2023-05-19T09:24:55;16.60;;;5.65;;
76208;SDS011;64990;51.698;-0.292;2023-05-19T09:27:21;11.40;;;4.50;;
76208;SDS011;64990;51.698;-0.292;2023-05-19T09:29:48;13.52;;;5.50;;
76208;SDS011;64990;51.698;-0.292;2023-05-19T09:32:22;9.98;;;5.13;;
76208;SDS011;64990;51.698;-0.292;2023-05-19T09:37:15;11.60;;;5.47;;
76208;SDS011;64990;51.698;-0.292;2023-05-19T09:39:42;18.33;;;6.03;;
76208;SDS011;64990;51.698;-0.292;2023-05-19T09:42:13;19.33;;;5.57;;
76208;SDS011;64990;51.698;-0.292;2023-05-19T09:44:40;17.85;;;4.35;;
76208;SDS011;64990;51.698;-0.292;2023-05-19T09:47:06;20.83;;;5.53;;
76208;SDS011;64990;51.698;-0.292;2023-05-19T09:49:35;13.50;;;4.90;;
76208;SDS011;64990;51.698;-0.292;2023-05-19T09:52:02;14.80;;;4.00;;
76208;SDS011;64990;51.698;-0.292;2023-05-19T09:54:28;9.93;;;4.18;;
76208;SDS011;64990;51.698;-0.292;2023-05-19T09:56:56;14.50;;;3.28;;
76208;SDS011;64990;51.698;-0.292;2023-05-19T09:59:23;7.80;;;4.18;;
76208;SDS011;64990;51.698;-0.292;2023-05-19T10:01:51;23.20;;;4.45;;
76208;SDS011;64990;51.698;-0.292;2023-05-19T10:04:18;10.00;;;4.40;;
76208;SDS011;64990;51.698;-0.292;2023-05-19T10:06:45;10.70;;;4.63;;
76208;SDS011;64990;51.698;-0.292;2023-05-19T10:09:12;18.15;;;5.07;;
76208;SDS011;64990;51.698;-0.292;2023-05-19T10:11:39;8.25;;;4.68;;
76208;SDS011;64990;51.698;-0.292;2023-05-19T10:14:06;7.10;;;3.88;;
76208;SDS011;64990;51.698;-0.292;2023-05-19T10:16:32;18.55;;;3.90;;
76208;SDS011;64990;51.698;-0.292;2023-05-19T10:18:59;8.13;;;3.80;;
76208;SDS011;64990;51.698;-0.292;2023-05-19T10:21:26;23.85;;;6.10;;
76208;SDS011;64990;51.698;-0.292;2023-05-19T10:23:52;12.93;;;4.97;;
76208;SDS011;64990;51.698;-0.292;2023-05-19T10:26:19;12.95;;;4.13;;
76208;SDS011;64990;51.698;-0.292;2023-05-19T10:28:45;8.75;;;3.45;;
76208;SDS011;64990;51.698;-0.292;2023-05-19T10:31:13;9.95;;;3.78;;
76208;SDS011;64990;51.698;-0.292;2023-05-19T10:36:30;14.90;;;4.63;;
76208;SDS011;64990;51.698;-0.292;2023-05-19T10:39:04;14.50;;;4.78;;
76208;SDS011;64990;51.698;-0.292;2023-05-19T10:42:32;8.43;;;4.53;;
76208;SDS011;64990;51.698;-0.292;2023-05-19T10:47:05;15.18;;;5.07;;
76208;SDS011;64990;51.698;-0.292;2023-05-19T10:49:35;6.25;;;4.35;;
76208;SDS011;64990;51.698;-0.292;2023-05-19T10:52:01;13.93;;;3.95;;
76208;SDS011;64990;51.698;-0.292;2023-05-19T10:54:38;13.65;;;3.85;;
76208;SDS011;64990;51.698;-0.292;2023-05-19T10:57:14;11.02;;;4.07;;
76208;SDS011;64990;51.698;-0.292;2023-05-19T10:59:41;8.60;;;3.63;;
76208;SDS011;64990;51.698;-0.292;2023-05-19T11:02:08;14.70;;;4.90;;
76208;SDS011;64990;51.698;-0.292;2023-05-19T11:04:45;12.43;;;4.63;;
76208;SDS011;64990;51.698;-0.292;2023-05-19T11:07:16;10.10;;;5.35;;
76208;SDS011;64990;51.698;-0.292;2023-05-19T11:09:43;18.02;;;5.90;;
76208;SDS011;64990;51.698;-0.292;2023-05-19T11:12:13;13.38;;;3.85;;
76208;SDS011;64990;51.698;-0.292;2023-05-19T11:14:44;11.43;;;4.50;;
76208;SDS011;64990;51.698;-0.292;2023-05-19T11:17:13;7.45;;;4.63;;
76208;SDS011;64990;51.698;-0.292;2023-05-19T11:19:50;13.18;;;5.55;;
76208;SDS011;64990;51.698;-0.292;2023-05-19T11:22:17;12.95;;;6.57;;
76208;SDS011;64990;51.698;-0.292;2023-05-19T11:24:43;14.70;;;6.00;;
76208;SDS011;64990;51.698;-0.292;2023-05-19T11:27:18;23.30;;;5.03;;
76208;SDS011;64990;51.698;-0.292;2023-05-19T11:29:44;16.73;;;6.18;;
76208;SDS011;64990;51.698;-0.292;2023-05-19T11:32:12;10.70;;;5.53;;
76208;SDS011;64990;51.698;-0.292;2023-05-19T11:34:38;13.13;;;5.75;;
76208;SDS011;64990;51.698;-0.292;2023-05-19T11:37:05;11.95;;;5.45;;
76208;SDS011;64990;51.698;-0.292;2023-05-19T11:39:31;16.20;;;5.40;;
76208;SDS011;64990;51.698;-0.292;2023-05-19T11:41:57;11.38;;;5.32;;
76208;SDS011;64990;51.698;-0.292;2023-05-19T11:44:23;10.27;;;5.43;;
76208;SDS011;64990;51.698;-0.292;2023-05-19T11:46:49;7.65;;;4.30;;
76208;SDS011;64990;51.698;-0.292;2023-05-19T11:49:15;11.70;;;5.25;;
76208;SDS011;64990;51.698;-0.292;2023-05-19T11:51:42;9.38;;;4.88;;
76208;SDS011;64990;51.698;-0.292;2023-05-19T11:54:11;13.57;;;5.32;;
76208;SDS011;64990;51.698;-0.292;2023-05-19T11:56:41;17.95;;;5.50;;
76208;SDS011;64990;51.698;-0.292;2023-05-19T11:59:07;11.57;;;5.00;;
76208;SDS011;64990;51.698;-0.292;2023-05-19T12:01:34;12.32;;;5.43;;
76208;SDS011;64990;51.698;-0.292;2023-05-19T12:04:02;7.57;;;4.53;;
76208;SDS011;64990;51.698;-0.292;2023-05-19T12:06:32;11.43;;;5.57;;
76208;SDS011;64990;51.698;-0.292;2023-05-19T12:08:59;9.73;;;5.35;;
76208;SDS011;64990;51.698;-0.292;2023-05-19T12:11:26;10.00;;;5.10;;
76208;SDS011;64990;51.698;-0.292;2023-05-19T12:13:59;11.02;;;4.88;;
76208;SDS011;64990;51.698;-0.292;2023-05-19T12:16:35;12.95;;;5.85;;
76208;SDS011;64990;51.698;-0.292;2023-05-19T12:19:04;24.95;;;6.80;;
76208;SDS011;64990;51.698;-0.292;2023-05-19T12:21:31;7.95;;;4.57;;
76208;SDS011;64990;51.698;-0.292;2023-05-19T12:23:58;7.53;;;5.03;;
76208;SDS011;64990;51.698;-0.292;2023-05-19T12:26:24;11.57;;;5.82;;
76208;SDS011;64990;51.698;-0.292;2023-05-19T12:28:50;12.93;;;5.88;;
76208;SDS011;64990;51.698;-0.292;2023-05-19T12:31:17;11.95;;;5.03;;
76208;SDS011;64990;51.698;-0.292;2023-05-19T12:33:44;9.75;;;5.18;;
76208;SDS011;64990;51.698;-0.292;2023-05-19T12:36:11;10.73;;;5.10;;
76208;SDS011;64990;51.698;-0.292;2023-05-19T12:38:37;10.20;;;4.75;;
76208;SDS011;64990;51.698;-0.292;2023-05-19T12:41:04;14.55;;;4.75;;
76208;SDS011;64990;51.698;-0.292;2023-05-19T12:43:31;9.65;;;4.55;;
76208;SDS011;64990;51.698;-0.292;2023-05-19T12:45:57;10.38;;;4.60;;
76208;SDS011;64990;51.698;-0.292;2023-05-19T12:48:23;13.48;;;5.43;;
76208;SDS011;64990;51.698;-0.292;2023-05-19T12:50:52;11.73;;;5.22;;
76208;SDS011;64990;51.698;-0.292;2023-05-19T12:53:19;12.35;;;5.05;;
76208;SDS011;64990;51.698;-0.292;2023-05-19T12:55:45;10.98;;;5.93;;
76208;SDS011;64990;51.698;-0.292;2023-05-19T12:58:11;8.32;;;4.97;;
76208;SDS011;64990;51.698;-0.292;2023-05-19T13:00:41;6.72;;;4.70;;
76208;SDS011;64990;51.698;-0.292;2023-05-19T13:03:13;17.27;;;4.88;;
76208;SDS011;64990;51.698;-0.292;2023-05-19T13:05:40;7.90;;;3.85;;
76208;SDS011;64990;51.698;-0.292;2023-05-19T13:08:11;15.73;;;5.35;;
76208;SDS011;64990;51.698;-0.292;2023-05-19T13:10:38;17.10;;;5.50;;
76208;SDS011;64990;51.698;-0.292;2023-05-19T13:13:05;9.00;;;4.63;;
76208;SDS011;64990;51.698;-0.292;2023-05-19T13:15:32;14.32;;;5.40;;
76208;SDS011;64990;51.698;-0.292;2023-05-19T13:17:59;11.85;;;5.25;;
76208;SDS011;64990;51.698;-0.292;2023-05-19T13:20:26;15.68;;;5.32;;
76208;SDS011;64990;51.698;-0.292;2023-05-19T13:22:52;8.93;;;4.90;;
76208;SDS011;64990;51.698;-0.292;2023-05-19T13:25:18;8.80;;;4.78;;
76208;SDS011;64990;51.698;-0.292;2023-05-19T13:27:46;10.57;;;5.28;;
76208;SDS011;64990;51.698;-0.292;2023-05-19T13:30:12;10.65;;;5.30;;
76208;SDS011;64990;51.698;-0.292;2023-05-19T13:32:38;8.40;;;5.18;;
76208;SDS011;64990;51.698;-0.292;2023-05-19T13:35:04;10.13;;;5.70;;
76208;SDS011;64990;51.698;-0.292;2023-05-19T13:37:30;11.13;;;5.60;;
76208;SDS011;64990;51.698;-0.292;2023-05-19T13:39:56;9.55;;;5.68;;
76208;SDS011;64990;51.698;-0.292;2023-05-19T13:42:22;9.23;;;4.35;;
76208;SDS011;64990;51.698;-0.292;2023-05-19T13:44:51;10.88;;;4.78;;
76208;SDS011;64990;51.698;-0.292;2023-05-19T13:47:19;8.27;;;5.03;;
76208;SDS011;64990;51.698;-0.292;2023-05-19T13:49:45;11.98;;;4.38;;
76208;SDS011;64990;51.698;-0.292;2023-05-19T13:52:11;15.77;;;6.00;;
76208;SDS011;64990;51.698;-0.292;2023-05-19T13:54:37;11.95;;;5.65;;
76208;SDS011;64990;51.698;-0.292;2023-05-19T13:57:03;13.77;;;5.03;;
76208;SDS011;64990;51.698;-0.292;2023-05-19T13:59:30;10.98;;;4.90;;
76208;SDS011;64990;51.698;-0.292;2023-05-19T14:01:56;11.45;;;5.75;;
76208;SDS011;64990;51.698;-0.292;2023-05-19T14:04:22;18.08;;;6.70;;
76208;SDS011;64990;51.698;-0.292;2023-05-19T14:06:48;12.30;;;4.47;;
76208;SDS011;64990;51.698;-0.292;2023-05-19T14:09:14;15.13;;;4.63;;
76208;SDS011;64990;51.698;-0.292;2023-05-19T14:11:40;10.45;;;5.15;;
76208;SDS011;64990;51.698;-0.292;2023-05-19T14:14:07;9.73;;;5.20;;
76208;SDS011;64990;51.698;-0.292;2023-05-19T14:16:33;16.08;;;5.82;;
76208;SDS011;64990;51.698;-0.292;2023-05-19T14:18:59;13.55;;;5.85;;
76208;SDS011;64990;51.698;-0.292;2023-05-19T14:21:25;9.07;;;5.72;;
76208;SDS011;64990;51.698;-0.292;2023-05-19T14:23:51;16.90;;;4.90;;
76208;SDS011;64990;51.698;-0.292;2023-05-19T14:26:17;7.43;;;4.75;;
76208;SDS011;64990;51.698;-0.292;2023-05-19T14:28:44;13.15;;;5.32;;
76208;SDS011;64990;51.698;-0.292;2023-05-19T14:31:12;11.57;;;5.65;;
76208;SDS011;64990;51.698;-0.292;2023-05-19T14:33:39;14.40;;;6.93;;
76208;SDS011;64990;51.698;-0.292;2023-05-19T14:36:05;12.55;;;5.68;;
76208;SDS011;64990;51.698;-0.292;2023-05-19T14:38:31;11.95;;;6.63;;
76208;SDS011;64990;51.698;-0.292;2023-05-19T14:40:57;15.57;;;6.65;;
76208;SDS011;64990;51.698;-0.292;2023-05-19T14:43:24;25.20;;;8.30;;